Weather at Coonagh Aerodrome

Public forecast

Using degrees Celsius for public forecast. Weather courtesy of forecast.io.

Closest aviation weather report (METAR) to Coonagh Aerodrome

Closest report is Shannon Airport, 9.1 nm (16.8 km) WNW. Retrieved 2021/01/28 08:30 UTC (0 seconds ago):

EINN 280830Z 14008KT 9999 FEW010 SCT160 BKN200 08/06 Q0998 NOSIG

Closest aviation forecast (TAF) to Coonagh Aerodrome

Forecast is more than 6 hours old.

Closest forecast is Shannon Airport, 9.1 nm (16.8 km) WNW. Retrieved 2021-01-28 00:10 UTC (8 hours ago):

TAF EINN 272300Z 2800/2824 21009KT 9000 -RA FEW015 SCT025 PROB40 TEMPO 2800/2804 3000 -RADZ BR BKN007 TEMPO 2814/2818 18015KT 4000 SHRA BKN012